createdAt,value
2022-12-20T00:01:33.765Z,10.31
2022-12-20T00:04:03.800Z,10.31
2022-12-20T00:06:31.296Z,10.35
2022-12-20T00:09:01.508Z,10.33
2022-12-20T00:11:30.016Z,10.34
2022-12-20T00:13:58.354Z,10.35
2022-12-20T00:16:28.194Z,10.34
2022-12-20T00:18:59.436Z,10.36
2022-12-20T00:21:28.042Z,10.39
2022-12-20T00:23:55.712Z,10.41
2022-12-20T00:26:29.799Z,10.41
2022-12-20T00:28:57.774Z,10.46
2022-12-20T00:31:28.041Z,10.47
2022-12-20T00:33:57.491Z,10.49
2022-12-20T00:36:30.167Z,10.49
2022-12-20T00:38:59.357Z,10.50
2022-12-20T00:41:32.970Z,10.57
2022-12-20T00:44:00.349Z,10.60
2022-12-20T00:46:28.078Z,10.62
2022-12-20T00:48:56.913Z,10.64
2022-12-20T00:51:28.365Z,10.64
2022-12-20T00:53:56.209Z,10.64
2022-12-20T00:56:23.768Z,10.68
2022-12-20T00:58:54.369Z,10.71
2022-12-20T01:01:26.510Z,10.70
2022-12-20T01:03:54.913Z,10.75
2022-12-20T01:06:23.781Z,10.78
2022-12-20T01:08:52.274Z,10.80
2022-12-20T01:11:31.215Z,10.81
2022-12-20T01:14:10.833Z,10.84
2022-12-20T01:16:42.331Z,10.86
2022-12-20T01:19:13.699Z,10.81
2022-12-20T01:21:44.716Z,10.85
2022-12-20T01:24:18.310Z,10.76
2022-12-20T01:26:46.597Z,10.56
2022-12-20T01:29:14.282Z,10.37
2022-12-20T01:31:43.760Z,10.22
2022-12-20T01:34:11.940Z,10.09
2022-12-20T01:36:39.212Z,9.98
2022-12-20T01:39:16.462Z,9.89
2022-12-20T01:41:46.126Z,9.83
2022-12-20T01:44:19.450Z,9.72
2022-12-20T01:46:49.973Z,9.70
2022-12-20T01:49:50.767Z,9.56
2022-12-20T01:52:42.888Z,9.48
2022-12-20T01:55:24.417Z,9.39
2022-12-20T01:58:18.886Z,9.34
2022-12-20T02:00:46.625Z,9.40
2022-12-20T02:03:16.810Z,9.30
2022-12-20T02:05:46.825Z,9.23
2022-12-20T02:08:18.430Z,9.18
2022-12-20T02:11:06.429Z,9.14
2022-12-20T02:13:59.836Z,9.13
2022-12-20T02:16:31.566Z,9.12
2022-12-20T02:19:33.937Z,9.12
2022-12-20T02:22:28.570Z,9.11
2022-12-20T02:25:57.368Z,9.13
2022-12-20T02:29:02.047Z,9.12
2022-12-20T02:31:49.425Z,9.12
2022-12-20T02:34:17.735Z,9.10
2022-12-20T02:36:44.805Z,9.14
2022-12-20T02:39:16.603Z,9.13
2022-12-20T02:42:07.092Z,9.10
2022-12-20T02:45:05.808Z,9.14
2022-12-20T02:47:45.961Z,9.12
2022-12-20T02:50:15.696Z,9.12
2022-12-20T02:52:42.959Z,9.18
2022-12-20T02:55:10.754Z,9.19
2022-12-20T02:57:45.959Z,9.26
2022-12-20T03:00:23.281Z,9.33
2022-12-20T03:03:10.881Z,9.42
2022-12-20T03:05:45.182Z,9.45
2022-12-20T03:08:12.521Z,9.48
2022-12-20T03:10:39.647Z,9.53
2022-12-20T03:13:07.449Z,9.55
2022-12-20T03:15:36.692Z,9.57
2022-12-20T03:18:04.976Z,9.65
2022-12-20T03:20:32.599Z,9.66
2022-12-20T03:22:59.741Z,9.71
2022-12-20T03:25:27.594Z,9.75
2022-12-20T03:27:55.953Z,9.78
2022-12-20T03:30:24.885Z,9.80
2022-12-20T03:32:51.931Z,9.84
2022-12-20T03:35:19.155Z,9.86
2022-12-20T03:37:46.691Z,9.91
2022-12-20T03:40:14.454Z,9.97
2022-12-20T03:42:41.978Z,10.02
2022-12-20T03:45:09.822Z,10.07
2022-12-20T03:47:37.056Z,10.12
2022-12-20T03:50:06.593Z,10.15
2022-12-20T03:52:35.637Z,10.19
2022-12-20T03:55:03.452Z,10.23
2022-12-20T03:57:37.794Z,10.29
2022-12-20T04:00:08.734Z,10.35
2022-12-20T04:02:41.875Z,10.46
2022-12-20T04:05:11.805Z,10.51
2022-12-20T04:07:39.130Z,10.54
2022-12-20T04:10:07.813Z,10.56
2022-12-20T04:12:34.932Z,10.59
2022-12-20T04:15:05.235Z,10.62
2022-12-20T04:17:32.356Z,10.63
2022-12-20T04:20:18.735Z,10.65
2022-12-20T04:22:52.019Z,10.67
2022-12-20T04:25:21.419Z,10.69
2022-12-20T04:27:48.891Z,10.73
2022-12-20T04:30:16.173Z,10.72
2022-12-20T04:32:43.607Z,10.75
2022-12-20T04:35:11.660Z,10.77
2022-12-20T04:37:42.519Z,10.81
2022-12-20T04:40:10.732Z,10.82
2022-12-20T04:42:58.173Z,10.84
2022-12-20T04:45:25.901Z,10.80
2022-12-20T04:47:54.157Z,10.71
2022-12-20T04:50:27.473Z,10.68
2022-12-20T04:53:12.886Z,10.71
2022-12-20T04:55:40.637Z,10.75
2022-12-20T04:58:08.709Z,10.81
2022-12-20T05:00:38.739Z,10.84
2022-12-20T05:03:24.297Z,10.84
2022-12-20T05:05:52.209Z,10.87
2022-12-20T05:08:19.489Z,10.88
2022-12-20T05:10:48.815Z,10.90
2022-12-20T05:13:16.294Z,10.90
2022-12-20T05:15:45.506Z,10.91
2022-12-20T05:18:13.253Z,10.93
2022-12-20T05:20:48.834Z,10.91
2022-12-20T05:23:34.917Z,10.92
2022-12-20T05:26:17.756Z,10.91
2022-12-20T05:28:45.202Z,10.93
2022-12-20T05:31:12.540Z,10.96
2022-12-20T05:33:39.783Z,10.95
2022-12-20T05:36:09.214Z,10.96
2022-12-20T05:38:36.548Z,10.98
2022-12-20T05:41:09.692Z,11.00
2022-12-20T05:43:37.611Z,11.02
2022-12-20T05:46:04.987Z,11.01
2022-12-20T05:48:41.791Z,11.00
2022-12-20T05:51:09.517Z,10.99
2022-12-20T05:53:50.753Z,10.99
2022-12-20T05:56:22.335Z,11.00
2022-12-20T05:58:49.477Z,11.04
2022-12-20T06:01:18.429Z,11.06
2022-12-20T06:03:46.500Z,11.03
2022-12-20T06:06:17.055Z,11.04
2022-12-20T06:08:46.648Z,11.06
2022-12-20T06:11:21.970Z,11.05
2022-12-20T06:13:57.503Z,11.03
2022-12-20T06:16:25.643Z,11.03
2022-12-20T06:18:54.930Z,11.02
2022-12-20T06:21:22.729Z,10.99
2022-12-20T06:23:51.530Z,10.96
2022-12-20T06:26:19.092Z,10.93
2022-12-20T06:28:52.697Z,10.90
2022-12-20T06:31:30.864Z,10.88
2022-12-20T06:33:58.037Z,10.87
2022-12-20T06:36:29.458Z,10.84
2022-12-20T06:38:56.727Z,10.82
2022-12-20T06:41:24.175Z,10.79
2022-12-20T06:43:52.569Z,10.71
2022-12-20T06:46:19.741Z,10.68
2022-12-20T06:48:47.075Z,10.67
2022-12-20T06:51:15.415Z,10.67
2022-12-20T06:53:42.616Z,10.65
2022-12-20T06:56:10.454Z,10.65
2022-12-20T06:58:37.614Z,10.62
2022-12-20T07:01:05.228Z,10.63
2022-12-20T07:03:32.381Z,10.60
2022-12-20T07:05:59.503Z,10.56
2022-12-20T07:08:27.350Z,10.57
2022-12-20T07:10:54.976Z,10.59
2022-12-20T07:13:24.376Z,10.59
2022-12-20T07:16:00.085Z,10.53
2022-12-20T07:18:27.382Z,10.57
2022-12-20T07:20:54.586Z,10.57
2022-12-20T07:23:21.621Z,10.59
2022-12-20T07:26:00.703Z,10.59
2022-12-20T07:28:28.386Z,10.59
2022-12-20T07:30:55.506Z,10.61
2022-12-20T07:33:22.662Z,10.63
2022-12-20T07:35:54.422Z,10.64
2022-12-20T07:38:21.980Z,10.65
2022-12-20T07:40:49.168Z,10.68
2022-12-20T07:43:16.219Z,10.69
2022-12-20T07:45:43.357Z,10.72
2022-12-20T07:48:15.860Z,10.75
2022-12-20T07:50:47.258Z,10.79
2022-12-20T07:53:14.829Z,10.81
2022-12-20T07:55:42.596Z,10.81
2022-12-20T07:58:11.982Z,10.89
2022-12-20T08:00:39.414Z,10.89
2022-12-20T08:03:21.682Z,10.86
2022-12-20T08:05:55.361Z,10.89
2022-12-20T08:08:22.895Z,10.92
2022-12-20T08:10:50.918Z,10.89
2022-12-20T08:13:18.561Z,10.84
2022-12-20T08:15:45.702Z,10.81
2022-12-20T08:18:12.781Z,10.71
2022-12-20T08:20:39.878Z,10.61
2022-12-20T08:23:07.576Z,10.51
2022-12-20T08:25:41.277Z,10.42
2022-12-20T08:28:09.747Z,10.25
2022-12-20T08:30:37.293Z,10.15
2022-12-20T08:33:05.611Z,10.04
2022-12-20T08:35:33.025Z,9.95
2022-12-20T08:38:00.171Z,9.86
2022-12-20T08:40:27.325Z,9.83
2022-12-20T08:42:54.750Z,9.80
2022-12-20T08:45:21.857Z,9.72
2022-12-20T08:47:49.210Z,9.62
2022-12-20T08:50:16.714Z,9.57
2022-12-20T08:52:44.153Z,9.52
2022-12-20T08:55:12.959Z,9.50
2022-12-20T08:57:40.766Z,9.49
2022-12-20T09:00:08.800Z,9.43
2022-12-20T09:02:38.388Z,9.39
2022-12-20T09:05:06.287Z,9.37
2022-12-20T09:07:33.381Z,9.34
2022-12-20T09:10:03.006Z,9.32
2022-12-20T09:12:30.116Z,9.29
2022-12-20T09:14:57.735Z,9.26
2022-12-20T09:17:24.931Z,9.24
2022-12-20T09:19:52.029Z,9.26
2022-12-20T09:22:19.091Z,9.21
2022-12-20T09:24:46.264Z,9.20
2022-12-20T09:27:13.376Z,9.19
2022-12-20T09:29:41.255Z,9.19
2022-12-20T09:32:08.798Z,9.19
2022-12-20T09:34:36.288Z,9.20
2022-12-20T09:37:03.445Z,9.21
2022-12-20T09:39:30.914Z,9.22
2022-12-20T09:41:58.795Z,9.21
2022-12-20T09:44:41.088Z,9.22
2022-12-20T09:47:19.220Z,9.28
2022-12-20T09:49:49.663Z,9.31
2022-12-20T09:52:32.074Z,9.31
2022-12-20T09:55:30.860Z,9.31
2022-12-20T09:58:23.992Z,9.31
2022-12-20T10:00:54.305Z,9.31
2022-12-20T10:03:35.546Z,9.31
2022-12-20T10:06:29.821Z,9.32
2022-12-20T10:09:04.365Z,9.33
2022-12-20T10:12:01.481Z,9.33
2022-12-20T10:14:43.258Z,9.36
2022-12-20T10:18:00.782Z,9.40
2022-12-20T10:20:52.533Z,9.42
2022-12-20T10:23:33.002Z,9.42
2022-12-20T10:26:01.205Z,9.49
2022-12-20T10:28:35.137Z,9.60
2022-12-20T10:31:17.476Z,9.72
2022-12-20T10:33:45.852Z,9.80
2022-12-20T10:36:27.981Z,9.87
2022-12-20T10:38:58.362Z,9.92
2022-12-20T10:41:29.644Z,9.96
2022-12-20T10:44:28.585Z,9.97
2022-12-20T10:46:59.472Z,9.97
2022-12-20T10:49:39.485Z,9.98
2022-12-20T10:52:09.909Z,10.01
2022-12-20T10:54:40.357Z,10.01
2022-12-20T10:57:21.931Z,10.02
2022-12-20T11:00:00.481Z,10.00
2022-12-20T11:02:42.410Z,9.97
2022-12-20T11:05:12.786Z,9.93
2022-12-20T11:08:50.239Z,9.86
2022-12-20T11:11:24.406Z,9.82
2022-12-20T11:13:52.425Z,9.78
2022-12-20T11:16:40.301Z,9.74
2022-12-20T11:19:31.495Z,9.69
2022-12-20T11:22:34.789Z,9.66
2022-12-20T11:25:08.003Z,9.64
2022-12-20T11:27:49.701Z,9.60
2022-12-20T11:31:13.807Z,9.58
2022-12-20T11:34:07.129Z,9.56
2022-12-20T11:37:01.889Z,9.55
2022-12-20T11:39:51.614Z,9.55
2022-12-20T11:43:02.753Z,9.53
2022-12-20T11:46:09.185Z,9.56
2022-12-20T11:48:39.254Z,9.57
2022-12-20T11:51:48.163Z,9.58
2022-12-20T11:54:32.802Z,9.59
2022-12-20T11:57:10.017Z,9.58
2022-12-20T11:59:54.312Z,9.58
2022-12-20T12:02:51.651Z,9.57
2022-12-20T12:05:47.756Z,9.57
2022-12-20T12:08:35.315Z,9.55
2022-12-20T12:11:32.042Z,9.58
2022-12-20T12:14:03.367Z,9.58
2022-12-20T12:16:41.672Z,9.57
2022-12-20T12:19:13.722Z,9.54
2022-12-20T12:21:51.363Z,9.52
2022-12-20T12:24:42.634Z,9.51
2022-12-20T12:27:28.101Z,9.54
2022-12-20T12:29:58.546Z,9.53
2022-12-20T12:32:48.310Z,9.54
2022-12-20T12:36:24.857Z,9.53
2022-12-20T12:39:28.277Z,9.55
2022-12-20T12:42:16.997Z,9.54
2022-12-20T12:45:02.006Z,9.57
2022-12-20T12:47:41.230Z,9.56
2022-12-20T12:50:36.715Z,9.55
2022-12-20T12:53:20.514Z,9.55
2022-12-20T12:56:07.339Z,9.56
2022-12-20T12:58:48.438Z,9.58
2022-12-20T13:01:56.810Z,9.57
2022-12-20T13:04:30.476Z,9.58
2022-12-20T13:07:33.588Z,9.59
2022-12-20T13:10:25.115Z,9.61
2022-12-20T13:12:52.801Z,9.60
2022-12-20T13:15:22.886Z,9.58
2022-12-20T13:18:09.094Z,9.49
2022-12-20T13:20:37.483Z,9.58
2022-12-20T13:23:11.645Z,9.59
2022-12-20T13:25:54.038Z,9.58
2022-12-20T13:28:24.190Z,9.56
2022-12-20T13:30:54.099Z,9.56
2022-12-20T13:33:44.532Z,9.56
2022-12-20T13:36:12.104Z,9.55
2022-12-20T13:38:48.293Z,9.54
2022-12-20T13:41:38.294Z,9.55
2022-12-20T13:44:14.341Z,9.52
2022-12-20T13:46:49.869Z,9.52
2022-12-20T13:49:38.612Z,9.52
2022-12-20T13:52:11.679Z,9.50
2022-12-20T13:54:46.575Z,9.50
2022-12-20T13:57:26.553Z,9.46
2022-12-20T14:00:05.745Z,9.47
2022-12-20T14:02:42.130Z,9.42
2022-12-20T14:05:18.502Z,9.46
2022-12-20T14:07:52.248Z,9.42
2022-12-20T14:10:26.380Z,9.46
2022-12-20T14:12:54.900Z,9.40
2022-12-20T14:15:32.134Z,9.41
2022-12-20T14:18:24.711Z,9.41
2022-12-20T14:20:58.625Z,9.39
2022-12-20T14:23:40.896Z,9.37
2022-12-20T14:26:16.970Z,9.33
2022-12-20T14:28:48.824Z,9.37
2022-12-20T14:31:32.302Z,9.36
2022-12-20T14:34:24.565Z,9.35
2022-12-20T14:37:39.186Z,9.35
2022-12-20T14:40:09.467Z,9.34
2022-12-20T14:42:39.974Z,9.34
2022-12-20T14:45:23.513Z,9.32
2022-12-20T14:47:56.542Z,9.33
2022-12-20T14:50:40.731Z,9.31
2022-12-20T14:53:28.839Z,9.26
2022-12-20T14:55:57.252Z,9.24
2022-12-20T14:58:33.723Z,9.23
2022-12-20T15:01:27.104Z,9.22
2022-12-20T15:03:59.912Z,9.22
2022-12-20T15:06:45.916Z,9.22
2022-12-20T15:09:14.765Z,9.21
2022-12-20T15:11:44.774Z,9.18
2022-12-20T15:14:37.765Z,9.18
2022-12-20T15:17:11.940Z,9.16
2022-12-20T15:19:42.407Z,9.14
2022-12-20T15:22:17.909Z,9.12
2022-12-20T15:24:44.949Z,9.11
2022-12-20T15:27:15.013Z,9.01
2022-12-20T15:29:43.229Z,9.09
2022-12-20T15:32:29.764Z,9.10
2022-12-20T15:34:57.602Z,9.11
2022-12-20T15:37:24.702Z,9.06
2022-12-20T15:39:52.133Z,9.11
2022-12-20T15:42:22.990Z,9.09
2022-12-20T15:44:50.697Z,9.12
2022-12-20T15:47:17.783Z,9.11
2022-12-20T15:49:50.211Z,9.11
2022-12-20T15:52:23.863Z,9.08
2022-12-20T15:54:51.061Z,9.13
2022-12-20T15:57:18.653Z,9.11
2022-12-20T15:59:59.861Z,9.12
2022-12-20T16:02:30.809Z,9.11
2022-12-20T16:04:59.048Z,9.08
2022-12-20T16:07:27.314Z,9.08
2022-12-20T16:09:54.452Z,9.07
2022-12-20T16:12:34.793Z,9.06
2022-12-20T16:15:01.893Z,9.03
2022-12-20T16:17:29.059Z,9.03
2022-12-20T16:19:56.138Z,9.03
2022-12-20T16:22:26.451Z,9.00
2022-12-20T16:24:53.764Z,9.01
2022-12-20T16:27:21.618Z,8.99
2022-12-20T16:29:48.732Z,9.01
2022-12-20T16:32:18.765Z,9.00
2022-12-20T16:34:46.115Z,9.01
2022-12-20T16:37:13.404Z,8.99
2022-12-20T16:39:41.679Z,9.00
2022-12-20T16:42:23.317Z,9.01
2022-12-20T16:44:54.327Z,9.00
2022-12-20T16:47:22.263Z,9.03
2022-12-20T16:49:52.919Z,9.00
2022-12-20T16:52:22.695Z,9.01
2022-12-20T16:54:50.726Z,9.02
2022-12-20T16:57:17.842Z,9.01
2022-12-20T16:59:45.008Z,9.00
2022-12-20T17:02:32.724Z,9.01
2022-12-20T17:05:00.837Z,9.02
2022-12-20T17:07:27.956Z,9.01
2022-12-20T17:09:55.118Z,8.99
2022-12-20T17:12:23.210Z,9.01
2022-12-20T17:14:50.631Z,9.02
2022-12-20T17:17:17.762Z,9.01
2022-12-20T17:19:45.035Z,9.02
2022-12-20T17:22:24.284Z,9.02
2022-12-20T17:24:52.735Z,9.00
2022-12-20T17:27:19.964Z,9.03
2022-12-20T17:29:47.113Z,9.01
2022-12-20T17:32:21.826Z,9.01
2022-12-20T17:34:50.108Z,8.99
2022-12-20T17:37:18.089Z,9.01
2022-12-20T17:39:45.273Z,9.02
2022-12-20T17:42:13.958Z,9.01
2022-12-20T17:44:41.223Z,9.00
2022-12-20T17:47:08.382Z,9.00
2022-12-20T17:49:35.572Z,8.99
2022-12-20T17:52:02.960Z,8.99
2022-12-20T17:54:38.553Z,9.00
2022-12-20T17:57:15.440Z,8.99
2022-12-20T17:59:43.230Z,8.97
2022-12-20T18:02:25.657Z,8.96
2022-12-20T18:04:52.976Z,8.95
2022-12-20T18:07:20.502Z,8.96
2022-12-20T18:09:49.063Z,8.97
2022-12-20T18:12:17.335Z,8.90
2022-12-20T18:14:45.065Z,8.97
2022-12-20T18:17:12.463Z,8.97
2022-12-20T18:19:40.899Z,8.96
2022-12-20T18:22:08.446Z,8.97
2022-12-20T18:24:35.562Z,8.97
2022-12-20T18:27:02.719Z,8.99
2022-12-20T18:29:31.296Z,8.99
2022-12-20T18:31:58.509Z,9.00
2022-12-20T18:34:25.723Z,8.96
2022-12-20T18:36:52.825Z,8.98
2022-12-20T18:39:20.092Z,8.96
2022-12-20T18:41:48.491Z,8.93
2022-12-20T18:44:16.003Z,8.99
2022-12-20T18:46:43.098Z,8.95
2022-12-20T18:49:10.342Z,8.99
2022-12-20T18:51:37.964Z,8.99
2022-12-20T18:54:08.133Z,8.97
2022-12-20T18:56:38.400Z,8.96
2022-12-20T18:59:14.222Z,8.99
2022-12-20T19:01:43.011Z,8.99
2022-12-20T19:04:11.031Z,8.97
2022-12-20T19:06:38.761Z,8.99
2022-12-20T19:09:09.831Z,8.99
2022-12-20T19:11:37.560Z,8.98
2022-12-20T19:14:05.010Z,9.00
2022-12-20T19:16:33.233Z,9.00
2022-12-20T19:19:04.242Z,9.00
2022-12-20T19:21:34.835Z,9.00
2022-12-20T19:24:06.894Z,9.00
2022-12-20T19:26:36.887Z,9.02
2022-12-20T19:29:07.385Z,9.00
2022-12-20T19:31:38.681Z,9.00
2022-12-20T19:34:10.508Z,8.92
2022-12-20T19:36:44.657Z,8.97
2022-12-20T19:39:22.247Z,8.99
2022-12-20T19:44:37.783Z,8.99
2022-12-20T19:47:05.087Z,8.99
2022-12-20T19:49:32.342Z,8.98
2022-12-20T19:51:59.402Z,8.98
2022-12-20T19:54:26.502Z,9.00
2022-12-20T19:56:53.536Z,8.98
2022-12-20T19:59:21.164Z,8.97
2022-12-20T20:01:48.450Z,8.96
2022-12-20T20:04:15.653Z,8.96
2022-12-20T20:06:42.776Z,8.94
2022-12-20T20:09:10.020Z,8.97
2022-12-20T20:11:37.142Z,8.97
2022-12-20T20:14:05.008Z,8.96
2022-12-20T20:16:32.452Z,8.95
2022-12-20T20:18:59.648Z,8.96
2022-12-20T20:21:26.806Z,8.94
2022-12-20T20:23:55.182Z,8.95
2022-12-20T20:26:26.448Z,8.95
2022-12-20T20:28:54.285Z,8.96
2022-12-20T20:31:22.350Z,8.94
2022-12-20T20:33:50.599Z,8.96
2022-12-20T20:36:23.330Z,8.99
2022-12-20T20:38:52.285Z,8.98
2022-12-20T20:41:19.773Z,8.96
2022-12-20T20:43:47.021Z,8.97
2022-12-20T20:46:16.947Z,8.94
2022-12-20T20:48:44.766Z,8.96
2022-12-20T20:51:12.404Z,8.94
2022-12-20T20:53:39.922Z,8.97
2022-12-20T20:56:08.173Z,8.96
2022-12-20T20:58:35.882Z,8.97
2022-12-20T21:01:08.468Z,8.96
2022-12-20T21:03:36.921Z,8.99
2022-12-20T21:06:36.561Z,8.98
2022-12-20T21:08:54.616Z,8.97
2022-12-20T21:11:22.558Z,8.95
2022-12-20T21:13:50.234Z,8.95
2022-12-20T21:16:22.459Z,8.96
2022-12-20T21:18:57.402Z,8.95
2022-12-20T21:21:26.589Z,8.95
2022-12-20T21:23:54.946Z,8.95
2022-12-20T21:26:25.090Z,8.95
2022-12-20T21:28:57.766Z,8.91
2022-12-20T21:31:25.264Z,8.95
2022-12-20T21:33:52.371Z,8.94
2022-12-20T21:36:20.089Z,8.95
2022-12-20T21:38:53.122Z,8.94
2022-12-20T21:41:25.964Z,8.95
2022-12-20T21:43:57.067Z,8.94
2022-12-20T21:46:25.162Z,8.96
2022-12-20T21:48:52.337Z,8.95
2022-12-20T21:51:23.221Z,8.95
2022-12-20T21:53:53.453Z,8.88
2022-12-20T21:56:22.891Z,8.96
2022-12-20T21:58:50.834Z,8.96
2022-12-20T22:01:22.334Z,8.97
2022-12-20T22:03:55.632Z,8.96
2022-12-20T22:06:23.099Z,8.96
2022-12-20T22:08:50.411Z,8.97
2022-12-20T22:11:18.970Z,8.97
2022-12-20T22:13:46.659Z,8.91
2022-12-20T22:16:25.494Z,8.94
2022-12-20T22:18:55.586Z,8.90
2022-12-20T22:21:26.752Z,8.91
2022-12-20T22:23:58.254Z,8.89
2022-12-20T22:26:28.505Z,8.88
2022-12-20T22:28:59.788Z,8.84
2022-12-20T22:31:27.446Z,8.81
2022-12-20T22:33:56.720Z,8.79
2022-12-20T22:36:24.055Z,8.78
2022-12-20T22:38:53.295Z,8.76
2022-12-20T22:41:27.767Z,8.74
2022-12-20T22:43:55.853Z,8.73
2022-12-20T22:46:23.221Z,8.72
2022-12-20T22:48:50.750Z,8.71
2022-12-20T22:51:21.490Z,8.70
2022-12-20T22:53:49.484Z,8.67
2022-12-20T22:56:19.556Z,8.63
2022-12-20T22:58:46.835Z,8.60
2022-12-20T23:01:15.969Z,8.57
2022-12-20T23:03:43.656Z,8.57
2022-12-20T23:06:17.590Z,8.55
2022-12-20T23:08:45.202Z,8.54
2022-12-20T23:11:41.278Z,8.52
2022-12-20T23:14:34.225Z,8.49
2022-12-20T23:17:02.627Z,8.45
2022-12-20T23:19:50.226Z,8.48
2022-12-20T23:22:36.708Z,8.46
2022-12-20T23:25:09.051Z,8.47
2022-12-20T23:27:36.501Z,8.45
2022-12-20T23:30:08.504Z,8.45
2022-12-20T23:32:36.712Z,8.42
2022-12-20T23:35:11.987Z,8.39
2022-12-20T23:37:40.471Z,8.38
2022-12-20T23:40:09.550Z,8.37
2022-12-20T23:42:36.992Z,8.38
2022-12-20T23:45:04.751Z,8.37
2022-12-20T23:47:32.334Z,8.37
2022-12-20T23:49:59.421Z,8.36
2022-12-20T23:52:26.473Z,8.35
2022-12-20T23:54:53.599Z,8.33
2022-12-20T23:57:20.989Z,8.34
2022-12-20T23:59:48.061Z,8.33
